KLRD

Laredo International Airport

Laredo, Texas, USA
METAR KLRD 170656Z AUTO 13006KT 10SM CLR 12/02 A3027 RMK AO2 SLP263 T01170017
Observed Flight Rules
Dec-17 @ 06:56 UTC (32 minutes ago) Visual Flight Rules
Wind Visibility Clouds
130° at 6 knots 10 miles
  • Clear skies
Temperatures Readings
Current 12°C / 54°F
Dewpoint 2°C / 36°F
Humidity 51%
Altimeter 30.27" Hg
Pressure 1026.3 hPa
Elevation 155
METAR KLRD 170656Z AUTO 13006KT 10SM CLR 12/02 A3027 RMK AO2 SLP263 T01170017
Observed Flight Rules
Dec-17 @ 06:56 UTC
(32 minutes ago)
VFR
Wind Visibility
130° at 6 knots 10 miles
Clouds
  • Clear skies
Temperature Dewpoint
12°C / 54°F 2°C / 36°F
Humidity Altimeter Pressure
51% 30.27" Hg 1026.3 hPa